createdAt,value
2023-01-03T00:00:06.740Z,7.00
2023-01-03T00:02:33.614Z,5.68
2023-01-03T00:05:00.465Z,6.60
2023-01-03T00:07:36.174Z,6.05
2023-01-03T00:10:09.165Z,6.55
2023-01-03T00:12:37.174Z,7.83
2023-01-03T00:15:04.235Z,6.95
2023-01-03T00:17:30.805Z,6.85
2023-01-03T00:19:57.464Z,5.28
2023-01-03T00:22:24.085Z,5.18
2023-01-03T00:24:52.923Z,4.97
2023-01-03T00:27:19.505Z,5.78
2023-01-03T00:29:46.186Z,5.90
2023-01-03T00:32:13.181Z,6.07
2023-01-03T00:34:39.861Z,6.55
2023-01-03T00:37:09.362Z,5.90
2023-01-03T00:39:36.160Z,7.00
2023-01-03T00:42:02.804Z,6.30
2023-01-03T00:44:29.375Z,5.55
2023-01-03T00:46:56.081Z,6.55
2023-01-03T00:49:23.043Z,6.23
2023-01-03T00:51:49.964Z,6.32
2023-01-03T00:54:18.796Z,6.72
2023-01-03T00:56:46.816Z,6.75
2023-01-03T00:59:15.399Z,6.90
2023-01-03T01:01:48.831Z,6.30
2023-01-03T01:04:17.541Z,7.05
2023-01-03T01:06:48.182Z,6.63
2023-01-03T01:09:17.932Z,7.22
2023-01-03T01:11:47.778Z,6.57
2023-01-03T01:14:21.566Z,5.80
2023-01-03T01:17:00.214Z,6.13
2023-01-03T01:19:33.098Z,6.15
2023-01-03T01:22:00.461Z,6.30
2023-01-03T01:24:27.157Z,5.63
2023-01-03T01:26:53.950Z,7.13
2023-01-03T01:29:20.886Z,5.95
2023-01-03T01:31:48.580Z,6.35
2023-01-03T01:34:16.111Z,6.50
2023-01-03T01:36:44.527Z,6.60
2023-01-03T01:39:15.607Z,6.07
2023-01-03T01:42:02.317Z,5.80
2023-01-03T01:44:51.407Z,6.25
2023-01-03T01:47:43.338Z,5.63
2023-01-03T01:50:18.985Z,5.70
2023-01-03T01:52:54.593Z,5.57
2023-01-03T01:55:24.914Z,6.60
2023-01-03T01:57:52.418Z,8.15
2023-01-03T02:00:19.102Z,6.35
2023-01-03T02:02:50.797Z,7.25
2023-01-03T02:05:19.588Z,9.73
2023-01-03T02:07:49.942Z,5.88
2023-01-03T02:10:18.597Z,5.57
2023-01-03T02:13:07.984Z,8.50
2023-01-03T02:15:49.849Z,11.43
2023-01-03T02:18:30.534Z,9.27
2023-01-03T02:21:03.172Z,7.97
2023-01-03T02:23:38.745Z,8.43
2023-01-03T02:26:28.963Z,8.85
2023-01-03T02:29:22.005Z,8.95
2023-01-03T02:32:11.132Z,8.87
2023-01-03T02:35:02.055Z,12.35
2023-01-03T02:37:36.435Z,9.82
2023-01-03T02:40:18.134Z,9.55
2023-01-03T02:43:05.865Z,9.30
2023-01-03T02:45:32.484Z,10.80
2023-01-03T02:48:09.576Z,8.18
2023-01-03T02:50:46.340Z,8.25
2023-01-03T02:53:17.395Z,10.13
2023-01-03T02:55:45.026Z,9.35
2023-01-03T02:58:18.288Z,8.83
2023-01-03T03:00:50.059Z,8.95
2023-01-03T03:03:20.944Z,10.88
2023-01-03T03:05:55.801Z,9.43
2023-01-03T03:08:22.555Z,9.70
2023-01-03T03:11:07.932Z,11.30
2023-01-03T03:13:53.509Z,11.18
2023-01-03T03:16:40.183Z,9.18
2023-01-03T03:19:45.220Z,10.93
2023-01-03T03:23:08.530Z,10.95
2023-01-03T03:26:04.288Z,10.07
2023-01-03T03:28:37.358Z,12.27
2023-01-03T03:31:09.582Z,10.30
2023-01-03T03:33:44.448Z,12.05
2023-01-03T03:36:39.425Z,10.80
2023-01-03T03:39:28.771Z,10.70
2023-01-03T03:42:21.558Z,9.45
2023-01-03T03:45:02.180Z,10.10
2023-01-03T03:47:41.317Z,11.30
2023-01-03T03:50:36.045Z,12.73
2023-01-03T03:53:07.738Z,13.77
2023-01-03T03:55:39.937Z,14.38
2023-01-03T03:58:12.219Z,14.00
2023-01-03T04:00:41.187Z,12.52
2023-01-03T04:03:09.933Z,12.48
2023-01-03T04:05:41.527Z,13.90
2023-01-03T04:08:11.311Z,13.93
2023-01-03T04:10:38.493Z,15.80
2023-01-03T04:13:05.603Z,14.30
2023-01-03T04:15:32.218Z,13.60
2023-01-03T04:18:01.885Z,15.80
2023-01-03T04:20:29.536Z,14.55
2023-01-03T04:22:58.550Z,11.82
2023-01-03T04:25:25.254Z,12.27
2023-01-03T04:27:51.850Z,14.02
2023-01-03T04:30:18.475Z,11.77
2023-01-03T04:32:45.171Z,13.55
2023-01-03T04:35:11.727Z,11.73
2023-01-03T04:37:38.347Z,10.88
2023-01-03T04:40:05.669Z,9.98
2023-01-03T04:42:50.951Z,11.83
2023-01-03T04:45:17.650Z,11.05
2023-01-03T04:47:44.173Z,11.70
2023-01-03T04:50:10.746Z,12.30
2023-01-03T04:52:37.435Z,12.90
2023-01-03T04:55:04.510Z,11.43
2023-01-03T04:57:31.067Z,11.35
2023-01-03T04:59:57.593Z,11.77
2023-01-03T05:02:24.212Z,11.75
2023-01-03T05:04:50.865Z,13.55
2023-01-03T05:07:17.418Z,13.53
2023-01-03T05:09:43.995Z,13.07
2023-01-03T05:12:12.469Z,12.68
2023-01-03T05:14:41.635Z,12.18
2023-01-03T05:17:11.381Z,13.20
2023-01-03T05:19:56.516Z,13.37
2023-01-03T05:22:41.668Z,13.77
2023-01-03T05:25:27.812Z,13.60
2023-01-03T05:27:56.032Z,14.23
2023-01-03T05:30:22.792Z,15.02
2023-01-03T05:32:49.402Z,14.77
2023-01-03T05:35:16.200Z,16.58
2023-01-03T05:37:42.736Z,15.70
2023-01-03T05:40:09.867Z,15.68
2023-01-03T05:42:36.572Z,15.90
2023-01-03T05:45:03.443Z,16.17
2023-01-03T05:47:30.082Z,14.40
2023-01-03T05:49:56.719Z,15.13
2023-01-03T05:52:23.393Z,15.20
2023-01-03T05:54:50.325Z,14.40
2023-01-03T05:57:16.859Z,13.57
2023-01-03T05:59:43.717Z,13.85
2023-01-03T06:02:10.306Z,13.13
2023-01-03T06:04:37.010Z,13.70
2023-01-03T06:07:03.884Z,13.55
2023-01-03T06:09:30.726Z,14.30
2023-01-03T06:11:57.569Z,13.85
2023-01-03T06:14:24.513Z,13.07
2023-01-03T06:17:09.623Z,12.43
2023-01-03T06:19:36.247Z,12.32
2023-01-03T06:22:08.674Z,13.53
2023-01-03T06:24:37.260Z,13.30
2023-01-03T06:27:03.930Z,13.77
2023-01-03T06:29:30.564Z,13.60
2023-01-03T06:31:57.531Z,13.20
2023-01-03T06:34:24.194Z,12.87
2023-01-03T06:36:51.065Z,12.52
2023-01-03T06:39:17.651Z,12.50
2023-01-03T06:41:44.291Z,12.35
2023-01-03T06:44:14.273Z,11.00
2023-01-03T06:47:01.394Z,11.37
2023-01-03T06:49:46.541Z,11.00
2023-01-03T06:52:35.163Z,10.20
2023-01-03T06:55:02.712Z,12.30
2023-01-03T06:57:29.261Z,13.40
2023-01-03T06:59:55.885Z,13.17
2023-01-03T07:02:22.729Z,12.43
2023-01-03T07:04:49.660Z,13.35
2023-01-03T07:07:16.263Z,11.80
2023-01-03T07:09:43.044Z,12.20
2023-01-03T07:12:28.112Z,12.63
2023-01-03T07:14:54.603Z,10.68
2023-01-03T07:17:21.708Z,11.90
2023-01-03T07:19:48.146Z,12.20
2023-01-03T07:22:17.229Z,11.60
2023-01-03T07:24:47.534Z,10.77
2023-01-03T07:27:15.262Z,9.57
2023-01-03T07:29:46.222Z,10.32
2023-01-03T07:32:20.234Z,10.40
2023-01-03T07:34:49.213Z,10.38
2023-01-03T07:37:16.241Z,9.67
2023-01-03T07:39:42.771Z,9.95
2023-01-03T07:42:27.791Z,10.43
2023-01-03T07:44:54.231Z,9.55
2023-01-03T07:47:20.811Z,9.23
2023-01-03T07:49:47.358Z,8.30
2023-01-03T07:52:13.883Z,8.70
2023-01-03T07:54:40.629Z,8.02
2023-01-03T07:57:07.280Z,8.68
2023-01-03T07:59:33.781Z,8.80
2023-01-03T08:02:00.304Z,8.63
2023-01-03T08:04:27.356Z,7.85
2023-01-03T08:06:54.031Z,7.38
2023-01-03T08:09:40.702Z,8.02
2023-01-03T08:12:30.006Z,7.60
2023-01-03T08:14:56.706Z,8.03
2023-01-03T08:17:23.204Z,8.23
2023-01-03T08:19:49.765Z,7.05
2023-01-03T08:22:16.366Z,7.18
2023-01-03T08:24:42.974Z,7.20
2023-01-03T08:27:09.380Z,7.40
2023-01-03T08:29:35.976Z,7.18
2023-01-03T08:32:03.072Z,7.50
2023-01-03T08:34:36.409Z,7.97
2023-01-03T08:37:10.360Z,7.65
2023-01-03T08:39:44.270Z,8.27
2023-01-03T08:42:17.516Z,6.90
2023-01-03T08:44:45.308Z,6.65
2023-01-03T08:47:16.934Z,7.10
2023-01-03T08:49:51.452Z,7.85
2023-01-03T08:52:18.314Z,6.77
2023-01-03T08:54:44.877Z,6.55
2023-01-03T08:57:11.476Z,6.90
2023-01-03T08:59:38.181Z,6.97
2023-01-03T09:02:04.912Z,6.78
2023-01-03T09:04:31.677Z,6.57
2023-01-03T09:06:58.315Z,6.15
2023-01-03T09:09:26.882Z,6.38
2023-01-03T09:11:54.863Z,7.60
2023-01-03T09:14:23.700Z,6.72
2023-01-03T09:16:50.704Z,7.10
2023-01-03T09:19:17.488Z,7.03
2023-01-03T09:21:44.103Z,6.95
2023-01-03T09:24:10.583Z,7.43
2023-01-03T09:26:38.822Z,7.28
2023-01-03T09:29:05.562Z,7.27
2023-01-03T09:31:35.037Z,7.55
2023-01-03T09:34:05.433Z,7.55
2023-01-03T09:36:34.955Z,7.22
2023-01-03T09:39:04.747Z,7.78
2023-01-03T09:41:36.142Z,8.17
2023-01-03T09:44:07.369Z,7.60
2023-01-03T09:46:37.763Z,8.15
2023-01-03T09:49:07.094Z,8.13
2023-01-03T09:51:58.805Z,8.60
2023-01-03T09:55:02.146Z,8.13
2023-01-03T09:57:53.550Z,9.25
2023-01-03T10:00:56.391Z,9.77
2023-01-03T10:04:08.215Z,8.80
2023-01-03T10:06:50.663Z,9.70
2023-01-03T10:09:33.738Z,8.93
2023-01-03T10:12:35.679Z,9.05
2023-01-03T10:15:24.003Z,8.75
2023-01-03T10:18:14.822Z,9.55
2023-01-03T10:20:50.780Z,9.35
2023-01-03T10:23:19.119Z,10.20
2023-01-03T10:25:47.192Z,9.23
2023-01-03T10:28:23.436Z,9.68
2023-01-03T10:30:59.429Z,9.85
2023-01-03T10:33:40.258Z,9.77
2023-01-03T10:36:08.499Z,9.53
2023-01-03T10:38:43.582Z,9.57
2023-01-03T10:41:46.245Z,9.30
2023-01-03T10:44:25.773Z,9.73
2023-01-03T10:46:55.360Z,9.75
2023-01-03T10:49:27.884Z,8.97
2023-01-03T10:52:09.456Z,9.45
2023-01-03T10:54:42.222Z,10.10
2023-01-03T10:57:46.576Z,10.90
2023-01-03T11:00:25.100Z,9.95
2023-01-03T11:02:52.301Z,10.23
2023-01-03T11:05:21.945Z,9.07
2023-01-03T11:08:19.419Z,10.18
2023-01-03T11:10:58.182Z,9.43
2023-01-03T11:13:29.756Z,9.77
2023-01-03T11:15:58.992Z,9.87
2023-01-03T11:18:28.777Z,9.27
2023-01-03T11:21:48.433Z,9.45
2023-01-03T11:24:24.514Z,9.48
2023-01-03T11:27:28.017Z,9.73
2023-01-03T11:30:08.369Z,8.17
2023-01-03T11:32:43.678Z,8.82
2023-01-03T11:35:47.428Z,8.55
2023-01-03T11:38:32.175Z,9.10
2023-01-03T11:41:18.251Z,8.45
2023-01-03T11:44:15.491Z,8.40
2023-01-03T11:46:51.081Z,9.13
2023-01-03T11:49:26.529Z,8.50
2023-01-03T11:51:58.866Z,9.45
2023-01-03T11:54:55.135Z,8.82
2023-01-03T11:57:37.863Z,9.17
2023-01-03T12:00:21.389Z,9.15
2023-01-03T12:03:12.355Z,9.23
2023-01-03T12:05:41.914Z,9.50
2023-01-03T12:08:17.987Z,9.73
2023-01-03T12:11:22.710Z,8.77
2023-01-03T12:14:01.682Z,9.82
2023-01-03T12:16:42.945Z,10.00
2023-01-03T12:19:29.613Z,8.60
2023-01-03T12:22:03.345Z,9.27
2023-01-03T12:24:29.730Z,9.30
2023-01-03T12:27:05.605Z,9.38
2023-01-03T12:29:49.187Z,9.82
2023-01-03T12:32:20.476Z,8.65
2023-01-03T12:35:13.744Z,9.70
2023-01-03T12:37:41.538Z,8.50
2023-01-03T12:40:32.562Z,8.65
2023-01-03T12:43:16.721Z,8.30
2023-01-03T12:46:18.575Z,8.93
2023-01-03T12:48:54.907Z,7.88
2023-01-03T12:51:24.574Z,8.07
2023-01-03T12:54:01.203Z,8.15
2023-01-03T12:57:04.394Z,8.52
2023-01-03T12:59:50.403Z,7.82
2023-01-03T13:02:22.645Z,7.93
2023-01-03T13:04:54.627Z,7.83
2023-01-03T13:07:24.470Z,7.53
2023-01-03T13:10:02.458Z,7.07
2023-01-03T13:12:32.041Z,6.38
2023-01-03T13:15:16.657Z,5.75
2023-01-03T13:17:48.792Z,5.37
2023-01-03T13:20:30.807Z,6.22
2023-01-03T13:23:21.350Z,5.63
2023-01-03T13:26:06.216Z,4.97
2023-01-03T13:28:39.140Z,4.78
2023-01-03T13:31:15.224Z,5.37
2023-01-03T13:34:30.560Z,4.70
2023-01-03T13:37:12.244Z,4.22
2023-01-03T13:40:10.129Z,3.67
2023-01-03T13:42:39.719Z,3.95
2023-01-03T13:45:36.879Z,4.13
2023-01-03T13:48:28.058Z,3.85
2023-01-03T13:51:37.036Z,3.58
2023-01-03T13:54:24.277Z,3.55
2023-01-03T13:56:52.657Z,4.53
2023-01-03T13:59:27.038Z,4.10
2023-01-03T14:02:21.226Z,4.03
2023-01-03T14:05:07.397Z,3.70
2023-01-03T14:08:08.031Z,3.50
2023-01-03T14:11:08.401Z,3.92
2023-01-03T14:13:53.687Z,3.37
2023-01-03T14:16:43.322Z,3.90
2023-01-03T14:19:26.459Z,4.38
2023-01-03T14:22:08.980Z,4.15
2023-01-03T14:24:56.554Z,4.28
2023-01-03T14:27:39.960Z,3.87
2023-01-03T14:30:31.280Z,4.07
2023-01-03T14:32:59.144Z,3.58
2023-01-03T14:35:38.062Z,3.35
2023-01-03T14:38:06.991Z,3.50
2023-01-03T14:40:34.257Z,3.83
2023-01-03T14:43:04.208Z,3.80
2023-01-03T14:45:30.780Z,3.63
2023-01-03T14:47:57.367Z,3.55
2023-01-03T14:50:29.316Z,3.63
2023-01-03T14:53:01.815Z,4.27
2023-01-03T14:55:33.384Z,4.47
2023-01-03T14:58:04.899Z,4.50
2023-01-03T15:00:35.751Z,4.15
2023-01-03T15:03:04.304Z,4.53
2023-01-03T15:05:34.390Z,3.87
2023-01-03T15:08:23.451Z,4.00
2023-01-03T15:11:09.343Z,4.50
2023-01-03T15:13:46.882Z,4.30
2023-01-03T15:16:40.269Z,3.90
2023-01-03T15:19:29.301Z,4.10
2023-01-03T15:22:13.674Z,4.07
2023-01-03T15:24:51.358Z,3.70
2023-01-03T15:27:40.626Z,3.63
2023-01-03T15:30:23.535Z,3.95
2023-01-03T15:33:37.094Z,3.20
2023-01-03T15:36:18.732Z,3.50
2023-01-03T15:38:49.117Z,3.90
2023-01-03T15:42:19.598Z,3.60
2023-01-03T15:44:43.546Z,3.08
2023-01-03T15:47:10.337Z,3.47
2023-01-03T15:52:44.619Z,3.25
2023-01-03T16:01:13.891Z,2.67
2023-01-03T16:03:43.107Z,3.40
2023-01-03T16:06:12.619Z,3.30
2023-01-03T16:08:41.548Z,3.03
2023-01-03T16:11:21.961Z,3.13
2023-01-03T16:13:55.678Z,3.03
2023-01-03T16:16:34.534Z,3.28
2023-01-03T16:19:06.350Z,3.22
2023-01-03T16:21:34.225Z,3.13
2023-01-03T16:24:03.120Z,3.38
2023-01-03T16:26:29.567Z,2.60
2023-01-03T16:28:56.476Z,3.15
2023-01-03T16:31:34.975Z,3.38
2023-01-03T16:34:05.650Z,2.80
2023-01-03T16:36:40.458Z,2.90
2023-01-03T16:39:15.501Z,3.10
2023-01-03T16:41:42.565Z,2.97
2023-01-03T16:44:09.168Z,2.55
2023-01-03T16:46:38.199Z,2.65
2023-01-03T16:49:05.099Z,2.47
2023-01-03T16:51:35.301Z,2.70
2023-01-03T16:54:07.823Z,3.03
2023-01-03T16:56:34.467Z,3.20
2023-01-03T16:59:01.028Z,2.38
2023-01-03T17:01:27.677Z,2.60
2023-01-03T17:03:54.613Z,2.10
2023-01-03T17:06:37.808Z,2.20
2023-01-03T17:09:26.648Z,2.58
2023-01-03T17:11:55.898Z,2.47
2023-01-03T17:14:24.139Z,2.38
2023-01-03T17:16:58.400Z,2.67
2023-01-03T17:22:30.321Z,3.00
2023-01-03T17:24:56.911Z,2.95
2023-01-03T17:27:32.405Z,2.63
2023-01-03T17:30:05.914Z,2.97
2023-01-03T17:32:35.290Z,2.92
2023-01-03T17:35:05.092Z,2.67
2023-01-03T17:37:45.719Z,2.63
2023-01-03T17:40:31.103Z,2.97
2023-01-03T17:43:06.259Z,2.43
2023-01-03T17:45:52.611Z,2.97
2023-01-03T17:48:58.595Z,2.25
2023-01-03T17:51:26.356Z,2.22
2023-01-03T17:53:53.097Z,2.53
2023-01-03T17:56:20.652Z,2.40
2023-01-03T17:58:55.573Z,2.72
2023-01-03T18:01:23.046Z,2.53
2023-01-03T18:03:55.273Z,2.30
2023-01-03T18:06:25.924Z,2.70
2023-01-03T18:08:53.356Z,2.97
2023-01-03T18:11:22.304Z,2.65
2023-01-03T18:13:49.891Z,2.50
2023-01-03T18:16:22.049Z,2.92
2023-01-03T18:18:51.867Z,2.65
2023-01-03T18:21:24.187Z,2.93
2023-01-03T18:24:02.911Z,2.20
2023-01-03T18:26:39.402Z,2.53
2023-01-03T18:29:08.554Z,2.10
2023-01-03T18:31:35.384Z,2.60
2023-01-03T18:34:04.662Z,2.30
2023-01-03T18:36:38.748Z,2.15
2023-01-03T18:39:08.410Z,2.55
2023-01-03T18:41:35.120Z,2.25
2023-01-03T18:44:02.126Z,2.38
2023-01-03T18:46:31.633Z,2.47
2023-01-03T18:49:01.473Z,2.58
2023-01-03T18:51:29.333Z,2.60
2023-01-03T18:54:00.057Z,2.25
2023-01-03T18:56:32.726Z,2.55
2023-01-03T18:59:02.881Z,2.63
2023-01-03T19:01:30.108Z,2.20
2023-01-03T19:03:57.530Z,2.20
2023-01-03T19:06:31.291Z,2.40
2023-01-03T19:09:04.415Z,2.13
2023-01-03T19:11:36.749Z,2.30
2023-01-03T19:14:04.360Z,2.20
2023-01-03T19:16:33.423Z,2.15
2023-01-03T19:19:01.081Z,2.50
2023-01-03T19:21:34.307Z,2.28
2023-01-03T19:24:26.479Z,1.97
2023-01-03T19:26:57.163Z,2.53
2023-01-03T19:29:31.968Z,1.83
2023-01-03T19:31:58.476Z,2.17
2023-01-03T19:34:27.041Z,2.60
2023-01-03T19:36:54.662Z,1.90
2023-01-03T19:39:25.800Z,1.92
2023-01-03T19:42:15.086Z,2.17
2023-01-03T19:44:42.569Z,1.55
2023-01-03T19:47:15.356Z,1.60
2023-01-03T19:49:45.338Z,1.50
2023-01-03T19:52:12.186Z,1.90
2023-01-03T19:54:46.283Z,1.95
2023-01-03T19:57:25.083Z,1.92
2023-01-03T19:59:55.154Z,2.30
2023-01-03T20:02:40.275Z,2.10
2023-01-03T20:05:35.210Z,2.22
2023-01-03T20:08:12.717Z,2.13
2023-01-03T20:10:42.053Z,2.00
2023-01-03T20:13:23.316Z,1.38
2023-01-03T20:15:52.129Z,1.37
2023-01-03T20:18:35.637Z,1.83
2023-01-03T20:21:22.501Z,1.95
2023-01-03T20:23:57.399Z,1.65
2023-01-03T20:26:32.353Z,1.67
2023-01-03T20:29:00.006Z,1.73
2023-01-03T20:31:26.833Z,1.17
2023-01-03T20:33:53.513Z,1.40
2023-01-03T20:36:26.786Z,1.70
2023-01-03T20:38:55.929Z,1.58
2023-01-03T20:41:36.059Z,1.23
2023-01-03T20:44:05.098Z,1.30
2023-01-03T20:46:31.921Z,1.52
2023-01-03T20:49:01.316Z,1.27
2023-01-03T20:51:28.075Z,1.80
2023-01-03T20:53:55.564Z,1.40
2023-01-03T20:56:23.135Z,1.50
2023-01-03T20:58:49.926Z,1.60
2023-01-03T21:01:17.246Z,1.85
2023-01-03T21:03:44.504Z,1.25
2023-01-03T21:06:19.576Z,1.43
2023-01-03T21:08:55.339Z,1.17
2023-01-03T21:11:21.794Z,1.70
2023-01-03T21:13:48.468Z,1.33
2023-01-03T21:16:38.998Z,1.20
2023-01-03T21:19:12.835Z,1.67
2023-01-03T21:21:40.837Z,1.50
2023-01-03T21:24:07.907Z,1.33
2023-01-03T21:26:34.469Z,1.50
2023-01-03T21:29:01.046Z,1.50
2023-01-03T21:31:27.759Z,1.40
2023-01-03T21:33:54.875Z,1.42
2023-01-03T21:36:27.898Z,1.38
2023-01-03T21:38:55.410Z,1.08
2023-01-03T21:42:01.726Z,1.30
2023-01-03T21:44:28.455Z,1.20
2023-01-03T21:46:55.063Z,1.02
2023-01-03T21:49:21.638Z,1.38
2023-01-03T21:52:10.851Z,1.30
2023-01-03T21:54:39.577Z,1.25
2023-01-03T21:57:06.087Z,1.17
2023-01-03T21:59:32.910Z,1.27
2023-01-03T22:02:18.023Z,1.42
2023-01-03T22:04:46.142Z,1.38
2023-01-03T22:07:15.047Z,1.50
2023-01-03T22:10:00.813Z,1.33
2023-01-03T22:12:30.659Z,1.50
2023-01-03T22:15:00.854Z,1.40
2023-01-03T22:17:34.572Z,2.22
2023-01-03T22:20:01.485Z,1.13
2023-01-03T22:22:29.426Z,1.27
2023-01-03T22:24:57.187Z,1.67
2023-01-03T22:27:26.067Z,1.13
2023-01-03T22:29:55.242Z,1.42
2023-01-03T22:32:27.111Z,1.10
2023-01-03T22:34:55.493Z,1.10
2023-01-03T22:37:23.540Z,1.20
2023-01-03T22:39:50.260Z,1.23
2023-01-03T22:42:19.868Z,1.70
2023-01-03T22:44:46.948Z,1.25
2023-01-03T22:47:13.511Z,1.70
2023-01-03T22:49:40.157Z,1.02
2023-01-03T22:52:06.908Z,1.67
2023-01-03T22:54:36.073Z,1.00
2023-01-03T22:57:05.432Z,1.38
2023-01-03T22:59:32.730Z,1.60
2023-01-03T23:02:00.768Z,1.17
2023-01-03T23:04:28.946Z,1.23
2023-01-03T23:06:55.931Z,1.30
2023-01-03T23:09:25.694Z,1.10
2023-01-03T23:12:10.482Z,1.27
2023-01-03T23:14:37.227Z,1.30
2023-01-03T23:17:23.749Z,1.48
2023-01-03T23:19:50.524Z,1.50
2023-01-03T23:22:17.642Z,1.40
2023-01-03T23:24:44.188Z,0.90
2023-01-03T23:27:12.145Z,1.67
2023-01-03T23:29:38.884Z,2.00
2023-01-03T23:32:11.144Z,1.60
2023-01-03T23:34:39.404Z,0.80
2023-01-03T23:37:05.878Z,1.50
2023-01-03T23:39:32.415Z,0.90
2023-01-03T23:41:59.515Z,1.45
2023-01-03T23:44:29.179Z,1.10
2023-01-03T23:46:56.878Z,1.13
2023-01-03T23:49:23.383Z,1.83
2023-01-03T23:51:49.892Z,1.15
2023-01-03T23:54:18.646Z,1.05
2023-01-03T23:56:45.119Z,1.88
2023-01-03T23:59:11.670Z,1.10
